sensor_id;sensor_type;location;lat;lon;timestamp;temperature;humidity
21582;DHT22;10952;50.836;4.348;2023-07-13T00:02:23;18.30;99.90
21582;DHT22;10952;50.836;4.348;2023-07-13T00:04:48;18.30;99.90
21582;DHT22;10952;50.836;4.348;2023-07-13T00:07:14;18.30;99.90
21582;DHT22;10952;50.836;4.348;2023-07-13T00:09:40;18.30;99.90
21582;DHT22;10952;50.836;4.348;2023-07-13T00:12:30;18.30;99.90
21582;DHT22;10952;50.836;4.348;2023-07-13T00:14:58;18.30;99.90
21582;DHT22;10952;50.836;4.348;2023-07-13T00:17:24;18.20;99.90
21582;DHT22;10952;50.836;4.348;2023-07-13T00:19:50;18.00;99.90
21582;DHT22;10952;50.836;4.348;2023-07-13T00:22:15;18.10;99.90
21582;DHT22;10952;50.836;4.348;2023-07-13T00:24:44;18.10;99.90
21582;DHT22;10952;50.836;4.348;2023-07-13T00:27:09;18.10;99.90
21582;DHT22;10952;50.836;4.348;2023-07-13T00:29:36;18.00;99.90
21582;DHT22;10952;50.836;4.348;2023-07-13T00:32:03;18.00;99.90
21582;DHT22;10952;50.836;4.348;2023-07-13T00:34:29;18.00;99.90
21582;DHT22;10952;50.836;4.348;2023-07-13T00:36:54;17.90;99.90
21582;DHT22;10952;50.836;4.348;2023-07-13T00:39:20;17.90;99.90
21582;DHT22;10952;50.836;4.348;2023-07-13T00:41:46;17.90;99.90
21582;DHT22;10952;50.836;4.348;2023-07-13T00:44:16;17.90;99.90
21582;DHT22;10952;50.836;4.348;2023-07-13T00:46:42;17.90;99.90
21582;DHT22;10952;50.836;4.348;2023-07-13T00:49:12;17.90;99.90
21582;DHT22;10952;50.836;4.348;2023-07-13T00:51:43;17.90;99.90
21582;DHT22;10952;50.836;4.348;2023-07-13T00:54:12;17.90;99.90
21582;DHT22;10952;50.836;4.348;2023-07-13T00:56:40;17.90;99.90
21582;DHT22;10952;50.836;4.348;2023-07-13T00:59:08;17.80;99.90
21582;DHT22;10952;50.836;4.348;2023-07-13T01:01:36;17.80;99.90
21582;DHT22;10952;50.836;4.348;2023-07-13T01:04:03;17.80;99.90
21582;DHT22;10952;50.836;4.348;2023-07-13T01:06:28;17.80;99.90
21582;DHT22;10952;50.836;4.348;2023-07-13T01:08:56;17.80;99.90
21582;DHT22;10952;50.836;4.348;2023-07-13T01:11:23;17.70;99.90
21582;DHT22;10952;50.836;4.348;2023-07-13T01:13:49;17.70;99.90
21582;DHT22;10952;50.836;4.348;2023-07-13T01:16:19;17.70;99.90
21582;DHT22;10952;50.836;4.348;2023-07-13T01:18:47;17.70;99.90
21582;DHT22;10952;50.836;4.348;2023-07-13T01:21:12;17.70;99.90
21582;DHT22;10952;50.836;4.348;2023-07-13T01:23:38;17.70;99.90
21582;DHT22;10952;50.836;4.348;2023-07-13T01:26:04;17.80;99.90
21582;DHT22;10952;50.836;4.348;2023-07-13T01:28:30;17.80;99.90
21582;DHT22;10952;50.836;4.348;2023-07-13T01:30:58;17.80;99.90
21582;DHT22;10952;50.836;4.348;2023-07-13T01:33:23;17.80;99.90
21582;DHT22;10952;50.836;4.348;2023-07-13T01:35:49;17.70;99.90
21582;DHT22;10952;50.836;4.348;2023-07-13T01:38:17;17.70;99.90
21582;DHT22;10952;50.836;4.348;2023-07-13T01:40:45;17.60;99.90
21582;DHT22;10952;50.836;4.348;2023-07-13T01:43:10;17.60;99.90
21582;DHT22;10952;50.836;4.348;2023-07-13T01:45:36;17.50;99.90
21582;DHT22;10952;50.836;4.348;2023-07-13T01:48:02;17.50;99.90
21582;DHT22;10952;50.836;4.348;2023-07-13T01:50:28;17.40;99.90
21582;DHT22;10952;50.836;4.348;2023-07-13T01:52:53;17.40;99.90
21582;DHT22;10952;50.836;4.348;2023-07-13T01:55:19;17.40;99.90
21582;DHT22;10952;50.836;4.348;2023-07-13T01:57:45;17.40;99.90
21582;DHT22;10952;50.836;4.348;2023-07-13T02:00:12;17.40;99.90
21582;DHT22;10952;50.836;4.348;2023-07-13T02:02:38;17.40;99.90
21582;DHT22;10952;50.836;4.348;2023-07-13T02:05:05;17.30;99.90
21582;DHT22;10952;50.836;4.348;2023-07-13T02:07:31;17.40;99.90
21582;DHT22;10952;50.836;4.348;2023-07-13T02:09:56;17.30;99.90
21582;DHT22;10952;50.836;4.348;2023-07-13T02:12:22;17.40;99.90
21582;DHT22;10952;50.836;4.348;2023-07-13T02:14:47;17.30;99.90
21582;DHT22;10952;50.836;4.348;2023-07-13T02:17:13;17.30;99.90
21582;DHT22;10952;50.836;4.348;2023-07-13T02:19:39;17.30;99.90
21582;DHT22;10952;50.836;4.348;2023-07-13T02:22:05;17.40;99.90
21582;DHT22;10952;50.836;4.348;2023-07-13T02:24:31;17.30;99.90
21582;DHT22;10952;50.836;4.348;2023-07-13T02:26:56;17.30;99.90
21582;DHT22;10952;50.836;4.348;2023-07-13T02:29:22;17.20;99.90
21582;DHT22;10952;50.836;4.348;2023-07-13T02:31:48;17.20;99.90
21582;DHT22;10952;50.836;4.348;2023-07-13T02:34:14;17.20;99.90
21582;DHT22;10952;50.836;4.348;2023-07-13T02:36:39;17.20;99.90
21582;DHT22;10952;50.836;4.348;2023-07-13T02:39:06;17.30;99.90
21582;DHT22;10952;50.836;4.348;2023-07-13T02:41:32;17.20;99.90
21582;DHT22;10952;50.836;4.348;2023-07-13T02:43:59;17.10;99.90
21582;DHT22;10952;50.836;4.348;2023-07-13T02:46:36;17.00;99.90
21582;DHT22;10952;50.836;4.348;2023-07-13T02:49:03;17.00;99.90
21582;DHT22;10952;50.836;4.348;2023-07-13T02:51:28;17.00;99.90
21582;DHT22;10952;50.836;4.348;2023-07-13T02:53:54;17.00;99.90
21582;DHT22;10952;50.836;4.348;2023-07-13T02:56:23;17.00;99.90
21582;DHT22;10952;50.836;4.348;2023-07-13T02:58:49;16.90;99.90
21582;DHT22;10952;50.836;4.348;2023-07-13T03:01:15;16.90;99.90
21582;DHT22;10952;50.836;4.348;2023-07-13T03:03:44;16.90;99.90
21582;DHT22;10952;50.836;4.348;2023-07-13T03:06:11;16.90;99.90
21582;DHT22;10952;50.836;4.348;2023-07-13T03:08:37;16.90;99.90
21582;DHT22;10952;50.836;4.348;2023-07-13T03:11:06;16.90;99.90
21582;DHT22;10952;50.836;4.348;2023-07-13T03:13:32;16.90;99.90
21582;DHT22;10952;50.836;4.348;2023-07-13T03:15:58;16.90;99.90
21582;DHT22;10952;50.836;4.348;2023-07-13T03:18:25;17.00;99.90
21582;DHT22;10952;50.836;4.348;2023-07-13T03:20:51;17.00;99.90
21582;DHT22;10952;50.836;4.348;2023-07-13T03:23:17;16.90;99.90
21582;DHT22;10952;50.836;4.348;2023-07-13T03:25:42;16.80;99.90
21582;DHT22;10952;50.836;4.348;2023-07-13T03:28:08;16.80;99.90
21582;DHT22;10952;50.836;4.348;2023-07-13T03:30:33;16.70;99.90
21582;DHT22;10952;50.836;4.348;2023-07-13T03:32:59;16.60;99.90
21582;DHT22;10952;50.836;4.348;2023-07-13T03:35:25;16.70;99.90
21582;DHT22;10952;50.836;4.348;2023-07-13T03:37:50;16.70;99.90
21582;DHT22;10952;50.836;4.348;2023-07-13T03:40:16;16.80;99.90
21582;DHT22;10952;50.836;4.348;2023-07-13T03:42:42;16.80;99.90
21582;DHT22;10952;50.836;4.348;2023-07-13T03:45:08;16.80;99.90
21582;DHT22;10952;50.836;4.348;2023-07-13T03:47:34;16.70;99.90
21582;DHT22;10952;50.836;4.348;2023-07-13T03:49:59;16.80;99.90
21582;DHT22;10952;50.836;4.348;2023-07-13T03:52:25;16.80;99.90
21582;DHT22;10952;50.836;4.348;2023-07-13T03:54:50;16.80;99.90
21582;DHT22;10952;50.836;4.348;2023-07-13T03:57:16;16.90;99.90
21582;DHT22;10952;50.836;4.348;2023-07-13T03:59:42;17.10;99.90
21582;DHT22;10952;50.836;4.348;2023-07-13T04:02:07;17.20;99.90
21582;DHT22;10952;50.836;4.348;2023-07-13T04:04:33;17.30;99.90
21582;DHT22;10952;50.836;4.348;2023-07-13T04:06:59;17.20;99.90
21582;DHT22;10952;50.836;4.348;2023-07-13T04:09:25;17.20;99.90
21582;DHT22;10952;50.836;4.348;2023-07-13T04:11:51;17.10;99.90
21582;DHT22;10952;50.836;4.348;2023-07-13T04:14:16;17.20;99.90
21582;DHT22;10952;50.836;4.348;2023-07-13T04:16:42;17.20;99.90
21582;DHT22;10952;50.836;4.348;2023-07-13T04:19:09;17.10;99.90
21582;DHT22;10952;50.836;4.348;2023-07-13T04:21:36;17.20;99.90
21582;DHT22;10952;50.836;4.348;2023-07-13T04:24:03;17.30;99.90
21582;DHT22;10952;50.836;4.348;2023-07-13T04:26:29;17.20;99.90
21582;DHT22;10952;50.836;4.348;2023-07-13T04:28:56;17.20;99.90
21582;DHT22;10952;50.836;4.348;2023-07-13T04:31:22;17.10;99.90
21582;DHT22;10952;50.836;4.348;2023-07-13T04:33:48;17.10;99.90
21582;DHT22;10952;50.836;4.348;2023-07-13T04:36:15;17.20;99.90
21582;DHT22;10952;50.836;4.348;2023-07-13T04:38:41;17.30;99.90
21582;DHT22;10952;50.836;4.348;2023-07-13T04:41:08;17.40;99.90
21582;DHT22;10952;50.836;4.348;2023-07-13T04:43:35;17.30;99.90
21582;DHT22;10952;50.836;4.348;2023-07-13T04:46:09;17.40;99.90
21582;DHT22;10952;50.836;4.348;2023-07-13T04:48:36;17.40;99.90
21582;DHT22;10952;50.836;4.348;2023-07-13T04:51:02;17.50;99.90
21582;DHT22;10952;50.836;4.348;2023-07-13T04:53:29;17.70;99.90
21582;DHT22;10952;50.836;4.348;2023-07-13T04:55:56;17.80;99.90
21582;DHT22;10952;50.836;4.348;2023-07-13T04:58:22;17.60;99.90
21582;DHT22;10952;50.836;4.348;2023-07-13T05:00:48;17.60;99.90
21582;DHT22;10952;50.836;4.348;2023-07-13T05:03:14;17.60;99.90
21582;DHT22;10952;50.836;4.348;2023-07-13T05:05:40;17.50;99.90
21582;DHT22;10952;50.836;4.348;2023-07-13T05:08:05;17.60;99.90
21582;DHT22;10952;50.836;4.348;2023-07-13T05:10:33;17.50;99.90
21582;DHT22;10952;50.836;4.348;2023-07-13T05:12:58;17.40;99.90
21582;DHT22;10952;50.836;4.348;2023-07-13T05:15:24;17.50;99.90
21582;DHT22;10952;50.836;4.348;2023-07-13T05:17:51;17.50;99.90
21582;DHT22;10952;50.836;4.348;2023-07-13T05:20:18;17.50;99.90
21582;DHT22;10952;50.836;4.348;2023-07-13T05:22:44;17.50;99.90
21582;DHT22;10952;50.836;4.348;2023-07-13T05:25:09;17.50;99.90
21582;DHT22;10952;50.836;4.348;2023-07-13T05:27:35;17.70;99.90
21582;DHT22;10952;50.836;4.348;2023-07-13T05:30:02;17.80;99.90
21582;DHT22;10952;50.836;4.348;2023-07-13T05:32:29;17.80;99.90
21582;DHT22;10952;50.836;4.348;2023-07-13T05:34:54;17.80;99.90
21582;DHT22;10952;50.836;4.348;2023-07-13T05:37:20;17.80;99.90
21582;DHT22;10952;50.836;4.348;2023-07-13T05:39:46;17.90;99.90
21582;DHT22;10952;50.836;4.348;2023-07-13T05:42:12;17.90;99.90
21582;DHT22;10952;50.836;4.348;2023-07-13T05:44:37;17.90;99.90
21582;DHT22;10952;50.836;4.348;2023-07-13T05:47:03;17.80;99.90
21582;DHT22;10952;50.836;4.348;2023-07-13T05:49:29;18.00;99.90
21582;DHT22;10952;50.836;4.348;2023-07-13T05:51:56;18.10;99.90
21582;DHT22;10952;50.836;4.348;2023-07-13T05:54:21;18.20;99.90
21582;DHT22;10952;50.836;4.348;2023-07-13T05:56:47;18.30;99.90
21582;DHT22;10952;50.836;4.348;2023-07-13T05:59:13;18.30;99.90
21582;DHT22;10952;50.836;4.348;2023-07-13T06:01:38;18.30;99.90
21582;DHT22;10952;50.836;4.348;2023-07-13T06:04:04;18.40;99.90
21582;DHT22;10952;50.836;4.348;2023-07-13T06:06:30;18.40;99.90
21582;DHT22;10952;50.836;4.348;2023-07-13T06:08:56;18.30;99.90
21582;DHT22;10952;50.836;4.348;2023-07-13T06:11:24;18.30;99.90
21582;DHT22;10952;50.836;4.348;2023-07-13T06:13:51;18.20;99.90
21582;DHT22;10952;50.836;4.348;2023-07-13T06:16:17;18.30;99.90
21582;DHT22;10952;50.836;4.348;2023-07-13T06:18:43;18.40;99.90
21582;DHT22;10952;50.836;4.348;2023-07-13T06:21:17;18.40;99.90
21582;DHT22;10952;50.836;4.348;2023-07-13T06:23:45;18.40;99.90
21582;DHT22;10952;50.836;4.348;2023-07-13T06:26:13;18.50;99.90
21582;DHT22;10952;50.836;4.348;2023-07-13T06:28:39;18.40;99.90
21582;DHT22;10952;50.836;4.348;2023-07-13T06:31:09;18.50;99.90
21582;DHT22;10952;50.836;4.348;2023-07-13T06:33:35;18.50;99.90
21582;DHT22;10952;50.836;4.348;2023-07-13T06:36:03;18.50;99.90
21582;DHT22;10952;50.836;4.348;2023-07-13T06:38:29;18.70;99.90
21582;DHT22;10952;50.836;4.348;2023-07-13T06:40:55;18.90;99.90
21582;DHT22;10952;50.836;4.348;2023-07-13T06:43:20;19.00;99.90
21582;DHT22;10952;50.836;4.348;2023-07-13T06:45:47;19.10;99.90
21582;DHT22;10952;50.836;4.348;2023-07-13T06:48:15;19.20;99.90
21582;DHT22;10952;50.836;4.348;2023-07-13T06:50:42;19.30;99.90
21582;DHT22;10952;50.836;4.348;2023-07-13T06:53:09;19.40;99.90
21582;DHT22;10952;50.836;4.348;2023-07-13T06:55:35;19.60;99.90
21582;DHT22;10952;50.836;4.348;2023-07-13T06:58:00;19.80;99.90
21582;DHT22;10952;50.836;4.348;2023-07-13T07:00:26;19.70;99.90
21582;DHT22;10952;50.836;4.348;2023-07-13T07:02:51;19.70;99.90
21582;DHT22;10952;50.836;4.348;2023-07-13T07:05:17;19.50;99.90
21582;DHT22;10952;50.836;4.348;2023-07-13T07:07:43;19.50;99.90
21582;DHT22;10952;50.836;4.348;2023-07-13T07:10:08;19.50;99.90
21582;DHT22;10952;50.836;4.348;2023-07-13T07:12:34;19.50;99.90
21582;DHT22;10952;50.836;4.348;2023-07-13T07:15:00;19.50;99.90
21582;DHT22;10952;50.836;4.348;2023-07-13T07:17:25;19.60;99.90
21582;DHT22;10952;50.836;4.348;2023-07-13T07:19:52;19.80;99.90
21582;DHT22;10952;50.836;4.348;2023-07-13T07:22:20;20.00;99.90
21582;DHT22;10952;50.836;4.348;2023-07-13T07:24:46;20.10;99.90
21582;DHT22;10952;50.836;4.348;2023-07-13T07:27:12;20.00;99.90
21582;DHT22;10952;50.836;4.348;2023-07-13T07:29:37;20.10;99.90
21582;DHT22;10952;50.836;4.348;2023-07-13T07:32:03;20.00;99.90
21582;DHT22;10952;50.836;4.348;2023-07-13T07:34:30;20.10;99.90
21582;DHT22;10952;50.836;4.348;2023-07-13T07:36:59;20.10;99.90
21582;DHT22;10952;50.836;4.348;2023-07-13T07:39:26;20.20;99.90
21582;DHT22;10952;50.836;4.348;2023-07-13T07:41:52;20.30;99.90
21582;DHT22;10952;50.836;4.348;2023-07-13T07:44:18;20.30;99.90
21582;DHT22;10952;50.836;4.348;2023-07-13T07:46:43;20.00;99.90
21582;DHT22;10952;50.836;4.348;2023-07-13T07:49:09;19.80;99.90
21582;DHT22;10952;50.836;4.348;2023-07-13T07:51:36;19.90;99.90
21582;DHT22;10952;50.836;4.348;2023-07-13T07:54:01;19.90;99.90
21582;DHT22;10952;50.836;4.348;2023-07-13T07:56:27;20.00;99.90
21582;DHT22;10952;50.836;4.348;2023-07-13T07:58:53;20.00;99.90
21582;DHT22;10952;50.836;4.348;2023-07-13T08:01:18;20.00;99.90
21582;DHT22;10952;50.836;4.348;2023-07-13T08:03:44;20.20;99.90
21582;DHT22;10952;50.836;4.348;2023-07-13T08:06:09;20.40;99.90
21582;DHT22;10952;50.836;4.348;2023-07-13T08:08:35;20.60;99.90
21582;DHT22;10952;50.836;4.348;2023-07-13T08:11:05;20.60;99.90
21582;DHT22;10952;50.836;4.348;2023-07-13T08:13:32;20.60;99.90
21582;DHT22;10952;50.836;4.348;2023-07-13T08:15:58;20.70;99.90
21582;DHT22;10952;50.836;4.348;2023-07-13T08:18:24;20.80;99.90
21582;DHT22;10952;50.836;4.348;2023-07-13T08:20:50;21.00;99.90
21582;DHT22;10952;50.836;4.348;2023-07-13T08:23:15;21.10;99.90
21582;DHT22;10952;50.836;4.348;2023-07-13T08:25:42;21.20;99.90
21582;DHT22;10952;50.836;4.348;2023-07-13T08:28:08;21.20;99.90
21582;DHT22;10952;50.836;4.348;2023-07-13T08:30:35;21.30;99.90
21582;DHT22;10952;50.836;4.348;2023-07-13T08:33:01;21.20;99.90
21582;DHT22;10952;50.836;4.348;2023-07-13T08:35:27;21.20;99.90
21582;DHT22;10952;50.836;4.348;2023-07-13T08:37:53;21.00;99.90
21582;DHT22;10952;50.836;4.348;2023-07-13T08:40:24;21.00;99.90
21582;DHT22;10952;50.836;4.348;2023-07-13T08:42:54;20.80;99.90
21582;DHT22;10952;50.836;4.348;2023-07-13T08:47:57;21.00;99.90
21582;DHT22;10952;50.836;4.348;2023-07-13T08:50:33;21.10;99.90
21582;DHT22;10952;50.836;4.348;2023-07-13T08:53:02;21.40;99.90
21582;DHT22;10952;50.836;4.348;2023-07-13T08:55:31;21.60;99.90
21582;DHT22;10952;50.836;4.348;2023-07-13T08:58:25;21.60;99.90
21582;DHT22;10952;50.836;4.348;2023-07-13T09:03:46;21.60;99.90
21582;DHT22;10952;50.836;4.348;2023-07-13T09:06:16;21.70;99.90
21582;DHT22;10952;50.836;4.348;2023-07-13T09:11:35;21.80;99.90
21582;DHT22;10952;50.836;4.348;2023-07-13T09:16:51;21.90;99.90
21582;DHT22;10952;50.836;4.348;2023-07-13T09:19:23;21.90;99.90
21582;DHT22;10952;50.836;4.348;2023-07-13T09:21:53;22.00;99.90
21582;DHT22;10952;50.836;4.348;2023-07-13T09:26:56;22.30;99.90
21582;DHT22;10952;50.836;4.348;2023-07-13T09:29:32;22.30;99.90
21582;DHT22;10952;50.836;4.348;2023-07-13T09:32:03;22.30;99.90
21582;DHT22;10952;50.836;4.348;2023-07-13T09:34:30;22.40;99.90
21582;DHT22;10952;50.836;4.348;2023-07-13T09:36:57;22.60;99.90
21582;DHT22;10952;50.836;4.348;2023-07-13T09:39:27;22.80;99.90
21582;DHT22;10952;50.836;4.348;2023-07-13T09:42:07;22.70;99.90
21582;DHT22;10952;50.836;4.348;2023-07-13T09:44:58;22.60;99.90
21582;DHT22;10952;50.836;4.348;2023-07-13T09:47:29;22.50;99.90
21582;DHT22;10952;50.836;4.348;2023-07-13T09:50:01;23.20;99.90
21582;DHT22;10952;50.836;4.348;2023-07-13T09:52:28;24.50;99.90
21582;DHT22;10952;50.836;4.348;2023-07-13T09:55:11;25.10;99.90
21582;DHT22;10952;50.836;4.348;2023-07-13T09:57:47;25.00;99.90
21582;DHT22;10952;50.836;4.348;2023-07-13T10:00:21;25.00;99.90
21582;DHT22;10952;50.836;4.348;2023-07-13T10:03:05;25.60;99.90
21582;DHT22;10952;50.836;4.348;2023-07-13T10:05:42;26.20;99.90
21582;DHT22;10952;50.836;4.348;2023-07-13T10:08:27;27.60;99.90
21582;DHT22;10952;50.836;4.348;2023-07-13T10:11:13;28.60;99.90
21582;DHT22;10952;50.836;4.348;2023-07-13T10:13:43;29.20;99.90
21582;DHT22;10952;50.836;4.348;2023-07-13T10:16:10;29.70;99.90
21582;DHT22;10952;50.836;4.348;2023-07-13T10:19:15;30.30;99.00
21582;DHT22;10952;50.836;4.348;2023-07-13T10:22:00;29.80;98.60
21582;DHT22;10952;50.836;4.348;2023-07-13T10:24:29;28.90;99.90
21582;DHT22;10952;50.836;4.348;2023-07-13T10:27:05;28.50;99.90
21582;DHT22;10952;50.836;4.348;2023-07-13T10:29:38;28.90;99.90
21582;DHT22;10952;50.836;4.348;2023-07-13T10:32:15;28.80;99.90
21582;DHT22;10952;50.836;4.348;2023-07-13T10:34:44;29.30;99.10
21582;DHT22;10952;50.836;4.348;2023-07-13T10:37:21;29.20;98.40
21582;DHT22;10952;50.836;4.348;2023-07-13T10:39:48;29.10;98.30
21582;DHT22;10952;50.836;4.348;2023-07-13T10:42:30;29.00;98.50
21582;DHT22;10952;50.836;4.348;2023-07-13T10:44:56;28.20;99.90
21582;DHT22;10952;50.836;4.348;2023-07-13T10:47:22;27.40;99.90
21582;DHT22;10952;50.836;4.348;2023-07-13T10:49:52;26.70;99.90
21582;DHT22;10952;50.836;4.348;2023-07-13T10:52:42;26.40;99.90
21582;DHT22;10952;50.836;4.348;2023-07-13T10:55:32;26.20;99.90
21582;DHT22;10952;50.836;4.348;2023-07-13T11:01:01;27.30;99.90
21582;DHT22;10952;50.836;4.348;2023-07-13T11:03:29;27.30;99.90
21582;DHT22;10952;50.836;4.348;2023-07-13T11:11:33;29.30;98.60
21582;DHT22;10952;50.836;4.348;2023-07-13T11:14:01;29.90;97.50
21582;DHT22;10952;50.836;4.348;2023-07-13T11:16:43;30.10;96.30
21582;DHT22;10952;50.836;4.348;2023-07-13T11:24:52;28.60;97.10
21582;DHT22;10952;50.836;4.348;2023-07-13T11:27:42;29.00;97.60
21582;DHT22;10952;50.836;4.348;2023-07-13T11:30:19;29.40;96.40
21582;DHT22;10952;50.836;4.348;2023-07-13T11:32:51;29.00;97.10
21582;DHT22;10952;50.836;4.348;2023-07-13T11:35:23;28.60;97.70
21582;DHT22;10952;50.836;4.348;2023-07-13T11:37:49;28.00;98.50
21582;DHT22;10952;50.836;4.348;2023-07-13T11:40:16;27.00;99.40
21582;DHT22;10952;50.836;4.348;2023-07-13T11:42:42;26.40;99.90
21582;DHT22;10952;50.836;4.348;2023-07-13T11:45:21;25.00;99.90
21582;DHT22;10952;50.836;4.348;2023-07-13T11:47:48;24.30;99.90
21582;DHT22;10952;50.836;4.348;2023-07-13T11:50:23;24.40;99.90
21582;DHT22;10952;50.836;4.348;2023-07-13T11:52:51;24.00;99.90
21582;DHT22;10952;50.836;4.348;2023-07-13T11:55:20;23.50;99.90
21582;DHT22;10952;50.836;4.348;2023-07-13T11:58:07;23.20;99.90
21582;DHT22;10952;50.836;4.348;2023-07-13T12:00:34;23.10;99.90
21582;DHT22;10952;50.836;4.348;2023-07-13T12:03:02;23.10;99.90
21582;DHT22;10952;50.836;4.348;2023-07-13T12:05:30;23.10;99.90
21582;DHT22;10952;50.836;4.348;2023-07-13T12:07:57;22.90;99.90
21582;DHT22;10952;50.836;4.348;2023-07-13T12:10:30;23.00;99.90
21582;DHT22;10952;50.836;4.348;2023-07-13T12:13:03;23.20;99.90
21582;DHT22;10952;50.836;4.348;2023-07-13T12:18:01;23.40;99.90
21582;DHT22;10952;50.836;4.348;2023-07-13T12:20:33;23.60;99.90
21582;DHT22;10952;50.836;4.348;2023-07-13T12:23:00;23.60;99.90
21582;DHT22;10952;50.836;4.348;2023-07-13T12:25:28;23.50;99.90
21582;DHT22;10952;50.836;4.348;2023-07-13T12:27:54;23.30;99.90
21582;DHT22;10952;50.836;4.348;2023-07-13T12:30:29;22.50;99.90
21582;DHT22;10952;50.836;4.348;2023-07-13T12:33:07;22.10;99.90
21582;DHT22;10952;50.836;4.348;2023-07-13T12:35:42;21.60;99.90
21582;DHT22;10952;50.836;4.348;2023-07-13T12:38:11;20.60;99.90
21582;DHT22;10952;50.836;4.348;2023-07-13T12:40:37;20.20;99.90
21582;DHT22;10952;50.836;4.348;2023-07-13T12:43:04;20.00;99.90
21582;DHT22;10952;50.836;4.348;2023-07-13T12:45:32;19.80;99.90
21582;DHT22;10952;50.836;4.348;2023-07-13T12:48:03;19.70;99.90
21582;DHT22;10952;50.836;4.348;2023-07-13T12:50:36;19.50;99.90
21582;DHT22;10952;50.836;4.348;2023-07-13T12:53:05;19.30;99.90
21582;DHT22;10952;50.836;4.348;2023-07-13T12:55:46;19.20;99.90
21582;DHT22;10952;50.836;4.348;2023-07-13T12:58:31;19.10;99.90
21582;DHT22;10952;50.836;4.348;2023-07-13T13:01:01;19.10;99.90
21582;DHT22;10952;50.836;4.348;2023-07-13T13:03:36;19.00;99.90
21582;DHT22;10952;50.836;4.348;2023-07-13T13:06:27;19.20;99.90
21582;DHT22;10952;50.836;4.348;2023-07-13T13:08:55;19.60;99.90
21582;DHT22;10952;50.836;4.348;2023-07-13T13:11:23;20.10;99.90
21582;DHT22;10952;50.836;4.348;2023-07-13T13:13:50;20.70;99.90
21582;DHT22;10952;50.836;4.348;2023-07-13T13:16:34;21.20;99.90
21582;DHT22;10952;50.836;4.348;2023-07-13T13:19:13;21.30;99.90
21582;DHT22;10952;50.836;4.348;2023-07-13T13:21:39;21.40;99.90
21582;DHT22;10952;50.836;4.348;2023-07-13T13:24:16;21.50;99.90
21582;DHT22;10952;50.836;4.348;2023-07-13T13:26:43;21.60;99.90
21582;DHT22;10952;50.836;4.348;2023-07-13T13:29:15;21.70;99.90
21582;DHT22;10952;50.836;4.348;2023-07-13T13:31:41;22.00;99.90
21582;DHT22;10952;50.836;4.348;2023-07-13T13:34:12;22.60;99.90
21582;DHT22;10952;50.836;4.348;2023-07-13T13:36:39;23.00;99.90
21582;DHT22;10952;50.836;4.348;2023-07-13T13:39:21;23.10;99.90
21582;DHT22;10952;50.836;4.348;2023-07-13T13:41:48;23.30;99.90
21582;DHT22;10952;50.836;4.348;2023-07-13T13:44:15;23.30;99.90
21582;DHT22;10952;50.836;4.348;2023-07-13T13:46:43;23.50;99.90
21582;DHT22;10952;50.836;4.348;2023-07-13T13:49:15;23.70;99.90
21582;DHT22;10952;50.836;4.348;2023-07-13T13:51:41;24.00;99.90
21582;DHT22;10952;50.836;4.348;2023-07-13T13:54:11;24.00;99.90
21582;DHT22;10952;50.836;4.348;2023-07-13T13:56:37;24.00;99.90
21582;DHT22;10952;50.836;4.348;2023-07-13T13:59:04;24.00;99.90
21582;DHT22;10952;50.836;4.348;2023-07-13T14:01:31;23.90;99.90
21582;DHT22;10952;50.836;4.348;2023-07-13T14:03:56;24.00;99.90
21582;DHT22;10952;50.836;4.348;2023-07-13T14:06:22;23.90;99.90
21582;DHT22;10952;50.836;4.348;2023-07-13T14:08:48;23.90;99.90
21582;DHT22;10952;50.836;4.348;2023-07-13T14:11:16;24.00;99.90
21582;DHT22;10952;50.836;4.348;2023-07-13T14:13:45;24.20;99.90
21582;DHT22;10952;50.836;4.348;2023-07-13T14:16:17;24.10;99.90
21582;DHT22;10952;50.836;4.348;2023-07-13T14:18:44;24.10;99.90
21582;DHT22;10952;50.836;4.348;2023-07-13T14:21:19;24.10;99.90
21582;DHT22;10952;50.836;4.348;2023-07-13T14:23:45;23.90;99.90
21582;DHT22;10952;50.836;4.348;2023-07-13T14:26:20;23.80;99.90
21582;DHT22;10952;50.836;4.348;2023-07-13T14:28:53;23.70;99.90
21582;DHT22;10952;50.836;4.348;2023-07-13T14:31:20;23.60;99.90
21582;DHT22;10952;50.836;4.348;2023-07-13T14:33:46;23.50;99.90
21582;DHT22;10952;50.836;4.348;2023-07-13T14:36:26;23.30;99.90
21582;DHT22;10952;50.836;4.348;2023-07-13T14:38:53;23.50;99.90
21582;DHT22;10952;50.836;4.348;2023-07-13T14:41:19;23.40;99.90
21582;DHT22;10952;50.836;4.348;2023-07-13T14:43:46;23.30;99.90
21582;DHT22;10952;50.836;4.348;2023-07-13T14:46:30;23.50;99.90
21582;DHT22;10952;50.836;4.348;2023-07-13T14:49:01;23.50;99.90
21582;DHT22;10952;50.836;4.348;2023-07-13T14:51:28;23.60;99.90
21582;DHT22;10952;50.836;4.348;2023-07-13T14:53:54;23.80;99.90
21582;DHT22;10952;50.836;4.348;2023-07-13T14:56:19;24.00;99.90
21582;DHT22;10952;50.836;4.348;2023-07-13T14:58:45;24.20;99.90
21582;DHT22;10952;50.836;4.348;2023-07-13T15:01:14;24.40;99.90
21582;DHT22;10952;50.836;4.348;2023-07-13T15:03:47;24.60;99.90
21582;DHT22;10952;50.836;4.348;2023-07-13T15:06:13;24.60;99.90
21582;DHT22;10952;50.836;4.348;2023-07-13T15:08:40;24.60;99.90
21582;DHT22;10952;50.836;4.348;2023-07-13T15:11:09;24.60;99.90
21582;DHT22;10952;50.836;4.348;2023-07-13T15:13:41;24.60;99.90
21582;DHT22;10952;50.836;4.348;2023-07-13T15:16:18;24.60;99.90
21582;DHT22;10952;50.836;4.348;2023-07-13T15:18:46;24.30;99.90
21582;DHT22;10952;50.836;4.348;2023-07-13T15:21:18;24.10;99.90
21582;DHT22;10952;50.836;4.348;2023-07-13T15:23:45;24.40;99.90
21582;DHT22;10952;50.836;4.348;2023-07-13T15:26:13;24.80;99.90
21582;DHT22;10952;50.836;4.348;2023-07-13T15:28:41;25.00;99.90
21582;DHT22;10952;50.836;4.348;2023-07-13T15:33:42;25.00;99.90
21582;DHT22;10952;50.836;4.348;2023-07-13T15:36:08;25.40;99.90
21582;DHT22;10952;50.836;4.348;2023-07-13T15:38:35;25.70;99.90
21582;DHT22;10952;50.836;4.348;2023-07-13T15:41:17;25.70;99.90
21582;DHT22;10952;50.836;4.348;2023-07-13T15:43:43;25.50;99.90
21582;DHT22;10952;50.836;4.348;2023-07-13T15:46:09;25.30;99.90
21582;DHT22;10952;50.836;4.348;2023-07-13T15:48:36;25.30;99.90
21582;DHT22;10952;50.836;4.348;2023-07-13T15:51:03;25.50;99.90
21582;DHT22;10952;50.836;4.348;2023-07-13T15:53:32;25.50;99.90
21582;DHT22;10952;50.836;4.348;2023-07-13T15:55:58;25.70;99.90
21582;DHT22;10952;50.836;4.348;2023-07-13T15:58:24;26.00;99.90
21582;DHT22;10952;50.836;4.348;2023-07-13T16:00:50;25.80;99.90
21582;DHT22;10952;50.836;4.348;2023-07-13T16:03:17;25.70;99.90
21582;DHT22;10952;50.836;4.348;2023-07-13T16:05:44;25.70;99.90
21582;DHT22;10952;50.836;4.348;2023-07-13T16:08:30;25.70;99.90
21582;DHT22;10952;50.836;4.348;2023-07-13T16:10:56;25.90;99.90
21582;DHT22;10952;50.836;4.348;2023-07-13T16:13:22;25.60;99.90